Time;durP1;ratioP1;P1;durP2;ratioP2;P2;SDS_P1;SDS_P2;PMS_P1;PMS_P2;Temp;Humidity;BMP_temperature;BMP_pressure;BME280_temperature;BME280_humidity;BME280_pressure;Samples;Min_cycle;Max_cycle;Signal;HPM_P1;HPM_P2
2022/11/17 00:01:54;;;;;;;17.63;4.82;;;;;;;;;;5074732;28;20016;-78
2022/11/17 00:04:20;;;;;;;8.43;4.88;;;;;;;;;;5078882;28;20392;-77
2022/11/17 00:06:46;;;;;;;9.15;5.03;;;;;;;;;;5075848;28;20093;-78
2022/11/17 00:09:16;;;;;;;7.80;4.22;;;;;;;;;;5074422;28;20465;-77
2022/11/17 00:14:35;;;;;;;9.35;4.78;;;;;;;;;;5076120;28;20039;-77
2022/11/17 00:17:01;;;;;;;11.73;4.63;;;;;;;;;;5074945;28;20025;-78
2022/11/17 00:22:12;;;;;;;7.95;5.03;;;;;;;;;;5076776;28;20452;-78
2022/11/17 00:24:38;;;;;;;12.23;5.72;;;;;;;;;;5075329;28;20021;-78
2022/11/17 00:27:04;;;;;;;8.88;5.10;;;;;;;;;;5075474;28;20460;-77
2022/11/17 00:29:30;;;;;;;9.45;5.30;;;;;;;;;;5075469;28;20484;-77
2022/11/17 00:34:41;;;;;;;9.75;5.43;;;;;;;;;;5076022;28;20480;-78
2022/11/17 00:37:08;;;;;;;10.30;5.15;;;;;;;;;;5079264;28;20036;-79
2022/11/17 00:39:34;;;;;;;11.35;5.35;;;;;;;;;;5078008;28;20055;-78
2022/11/17 00:42:00;;;;;;;8.63;5.40;;;;;;;;;;5075125;28;20485;-77
2022/11/17 00:44:26;;;;;;;12.40;5.72;;;;;;;;;;5076098;28;20147;-78
2022/11/17 00:46:52;;;;;;;8.80;5.38;;;;;;;;;;5075641;28;20035;-77
2022/11/17 00:49:24;;;;;;;9.38;5.50;;;;;;;;;;5078623;28;20024;-77
2022/11/17 00:51:53;;;;;;;8.95;5.35;;;;;;;;;;5082722;28;20021;-77
2022/11/17 00:54:19;;;;;;;9.80;5.80;;;;;;;;;;5085790;28;20036;-76
2022/11/17 00:56:46;;;;;;;8.13;5.82;;;;;;;;;;5087000;28;20028;-75
2022/11/17 00:59:12;;;;;;;8.57;5.90;;;;;;;;;;5087013;28;20101;-77
2022/11/17 01:01:38;;;;;;;10.10;6.00;;;;;;;;;;5088330;28;20021;-78
2022/11/17 01:04:05;;;;;;;10.80;6.20;;;;;;;;;;5086514;28;20024;-78
2022/11/17 01:06:34;;;;;;;11.30;6.05;;;;;;;;;;5086204;28;20519;-77
2022/11/17 01:09:00;;;;;;;10.07;6.22;;;;;;;;;;5083483;28;20491;-78
2022/11/17 01:11:27;;;;;;;13.32;5.97;;;;;;;;;;5082756;28;20143;-76
2022/11/17 01:13:54;;;;;;;11.27;6.70;;;;;;;;;;5083716;28;20024;-76
2022/11/17 01:16:20;;;;;;;15.95;6.63;;;;;;;;;;5091433;28;20050;-77
2022/11/17 01:18:47;;;;;;;11.77;7.30;;;;;;;;;;5091611;28;20033;-78
2022/11/17 01:21:13;;;;;;;11.45;6.88;;;;;;;;;;5088861;28;20518;-77
2022/11/17 01:23:39;;;;;;;11.30;6.05;;;;;;;;;;5096130;28;20048;-78
2022/11/17 01:26:11;;;;;;;11.77;7.35;;;;;;;;;;5092527;28;20089;-76
2022/11/17 01:28:37;;;;;;;10.88;6.55;;;;;;;;;;5092082;28;20028;-77
2022/11/17 01:31:08;;;;;;;11.38;6.97;;;;;;;;;;5087422;28;20035;-78
2022/11/17 01:33:34;;;;;;;11.95;7.05;;;;;;;;;;5092368;28;20088;-76
2022/11/17 01:36:04;;;;;;;12.23;7.05;;;;;;;;;;5098418;22;20040;-74
2022/11/17 01:38:31;;;;;;;10.82;6.38;;;;;;;;;;5052181;28;20056;-74
2022/11/17 01:41:01;;;;;;;13.73;6.93;;;;;;;;;;5052183;28;20500;-73
2022/11/17 01:43:45;;;;;;;12.60;7.10;;;;;;;;;;5052584;28;20083;-75
2022/11/17 01:46:30;;;;;;;11.43;7.73;;;;;;;;;;5052292;28;20432;-74
2022/11/17 01:49:02;;;;;;;11.30;7.38;;;;;;;;;;5052822;28;20029;-75
2022/11/17 01:51:29;;;;;;;18.52;7.53;;;;;;;;;;5052238;28;20029;-76
2022/11/17 01:53:55;;;;;;;13.48;7.45;;;;;;;;;;5051339;28;20474;-75
2022/11/17 01:56:26;;;;;;;14.10;7.22;;;;;;;;;;5052939;28;20029;-74
2022/11/17 01:59:02;;;;;;;16.50;7.90;;;;;;;;;;5055032;28;20367;-74
2022/11/17 02:01:28;;;;;;;10.82;7.18;;;;;;;;;;5060065;28;20045;-78
2022/11/17 02:03:54;;;;;;;13.93;6.97;;;;;;;;;;5076252;28;20024;-77
2022/11/17 02:06:26;;;;;;;14.00;7.75;;;;;;;;;;5075785;28;20025;-78
2022/11/17 02:08:53;;;;;;;11.52;7.82;;;;;;;;;;5074827;28;20140;-75
2022/11/17 02:11:20;;;;;;;11.13;7.65;;;;;;;;;;5051989;28;20033;-74
2022/11/17 02:13:46;;;;;;;12.55;8.07;;;;;;;;;;5051738;28;20466;-74
2022/11/17 02:16:13;;;;;;;11.65;8.13;;;;;;;;;;5051461;28;20090;-75
2022/11/17 02:18:40;;;;;;;12.63;7.57;;;;;;;;;;5051904;28;20025;-75
2022/11/17 02:21:21;;;;;;;10.65;7.53;;;;;;;;;;5051666;28;20025;-75
2022/11/17 02:24:01;;;;;;;15.43;7.60;;;;;;;;;;5051926;28;20029;-75
2022/11/17 02:26:40;;;;;;;11.43;7.43;;;;;;;;;;5051523;28;20108;-75
2022/11/17 02:29:12;;;;;;;11.32;7.93;;;;;;;;;;5051697;28;20287;-74
2022/11/17 02:31:57;;;;;;;13.10;8.23;;;;;;;;;;5051482;28;20029;-77
2022/11/17 02:34:41;;;;;;;11.30;7.85;;;;;;;;;;5050356;28;20116;-76
2022/11/17 02:37:16;;;;;;;19.48;7.80;;;;;;;;;;5051181;28;20098;-75
2022/11/17 02:40:01;;;;;;;12.18;7.78;;;;;;;;;;5051599;28;20029;-76
2022/11/17 02:45:18;;;;;;;10.73;8.20;;;;;;;;;;5051717;28;20521;-75
2022/11/17 02:47:46;;;;;;;10.85;7.47;;;;;;;;;;5051779;28;20454;-74
2022/11/17 02:50:12;;;;;;;10.20;7.55;;;;;;;;;;5050410;28;20112;-75
2022/11/17 02:52:38;;;;;;;12.88;7.95;;;;;;;;;;5051553;28;20087;-75
2022/11/17 02:55:06;;;;;;;14.98;7.57;;;;;;;;;;5051428;28;20470;-74
2022/11/17 02:57:34;;;;;;;10.20;7.32;;;;;;;;;;5049208;28;20074;-74
2022/11/17 03:00:03;;;;;;;10.43;7.20;;;;;;;;;;5051032;28;20040;-75
2022/11/17 03:02:38;;;;;;;10.23;7.40;;;;;;;;;;5051282;28;20025;-76
2022/11/17 03:05:28;;;;;;;10.07;7.82;;;;;;;;;;5054605;28;20363;-75
2022/11/17 03:08:10;;;;;;;10.68;7.45;;;;;;;;;;5054945;28;20036;-75
2022/11/17 03:10:57;;;;;;;11.70;7.40;;;;;;;;;;5054815;28;20443;-75
2022/11/17 03:13:39;;;;;;;10.65;7.88;;;;;;;;;;5054703;28;20059;-74
2022/11/17 03:16:10;;;;;;;12.20;8.32;;;;;;;;;;5054619;28;20029;-75
2022/11/17 03:18:50;;;;;;;9.75;7.45;;;;;;;;;;5054709;28;20473;-75
2022/11/17 03:21:21;;;;;;;11.88;8.25;;;;;;;;;;5054888;28;20025;-75
2022/11/17 03:23:52;;;;;;;11.90;7.88;;;;;;;;;;5054507;28;20385;-75
2022/11/17 03:26:28;;;;;;;13.70;8.13;;;;;;;;;;5054387;28;20075;-74
2022/11/17 03:28:55;;;;;;;9.15;7.35;;;;;;;;;;5055965;28;20393;-76
2022/11/17 03:31:21;;;;;;;11.95;7.50;;;;;;;;;;5054627;28;20111;-75
2022/11/17 03:33:49;;;;;;;11.60;7.72;;;;;;;;;;5053342;28;20044;-75
2022/11/17 03:36:16;;;;;;;12.18;7.72;;;;;;;;;;5054700;28;20063;-74
2022/11/17 03:38:45;;;;;;;11.98;7.15;;;;;;;;;;5054491;28;20025;-75
2022/11/17 03:41:13;;;;;;;18.13;7.95;;;;;;;;;;5054568;28;20029;-74
2022/11/17 03:43:40;;;;;;;10.98;8.05;;;;;;;;;;5054461;28;20516;-75
2022/11/17 03:46:08;;;;;;;10.07;7.50;;;;;;;;;;5054394;28;20474;-76
2022/11/17 03:48:37;;;;;;;10.90;7.93;;;;;;;;;;5054377;28;20067;-75
2022/11/17 03:51:08;;;;;;;9.98;7.20;;;;;;;;;;5054100;28;20017;-75
2022/11/17 03:53:34;;;;;;;11.88;7.05;;;;;;;;;;5054436;28;20381;-72
2022/11/17 03:56:09;;;;;;;13.30;7.53;;;;;;;;;;5053972;28;20025;-76
2022/11/17 03:58:39;;;;;;;10.15;7.07;;;;;;;;;;5054732;28;20036;-73
2022/11/17 04:01:05;;;;;;;11.93;6.88;;;;;;;;;;5055374;28;20382;-75
2022/11/17 04:03:32;;;;;;;10.43;7.40;;;;;;;;;;5056647;28;20045;-75
2022/11/17 04:05:58;;;;;;;10.95;7.43;;;;;;;;;;5057180;28;20367;-74
2022/11/17 04:08:28;;;;;;;11.95;7.53;;;;;;;;;;5062225;28;20025;-76
2022/11/17 04:16:23;;;;;;;11.52;7.82;;;;;;;;;;5065800;28;20063;-75
2022/11/17 04:18:50;;;;;;;14.40;8.18;;;;;;;;;;5063846;28;20477;-76
2022/11/17 04:21:16;;;;;;;13.05;8.07;;;;;;;;;;5063547;28;20126;-74
2022/11/17 04:23:42;;;;;;;11.60;7.82;;;;;;;;;;5062320;28;20036;-76
2022/11/17 04:28:58;;;;;;;11.45;7.93;;;;;;;;;;5067741;28;20035;-76
2022/11/17 04:31:25;;;;;;;14.27;8.30;;;;;;;;;;5069738;28;20044;-75
2022/11/17 04:33:52;;;;;;;11.32;8.13;;;;;;;;;;5059411;28;20036;-75
2022/11/17 04:36:19;;;;;;;13.07;7.72;;;;;;;;;;5053063;28;20509;-75
2022/11/17 04:38:46;;;;;;;13.13;8.48;;;;;;;;;;5053205;28;20058;-76
2022/11/17 04:43:58;;;;;;;14.18;8.07;;;;;;;;;;5053862;28;20059;-74
2022/11/17 04:46:25;;;;;;;10.90;7.72;;;;;;;;;;5053313;28;20050;-76
2022/11/17 04:48:52;;;;;;;11.30;8.00;;;;;;;;;;5055149;28;20032;-74
2022/11/17 04:51:18;;;;;;;11.85;8.27;;;;;;;;;;5054146;28;20020;-74
2022/11/17 04:53:44;;;;;;;13.10;8.63;;;;;;;;;;5057861;28;20402;-75
2022/11/17 04:56:10;;;;;;;12.60;8.30;;;;;;;;;;5059366;28;20072;-75
2022/11/17 04:58:36;;;;;;;13.07;8.75;;;;;;;;;;5065612;28;20401;-74
2022/11/17 05:01:12;;;;;;;16.95;8.68;;;;;;;;;;5065207;28;20032;-74
2022/11/17 05:03:42;;;;;;;20.48;8.40;;;;;;;;;;5065591;28;20036;-76
2022/11/17 05:06:09;;;;;;;15.48;8.55;;;;;;;;;;5065770;28;20393;-74
2022/11/17 05:08:36;;;;;;;15.20;9.73;;;;;;;;;;5065316;28;20021;-74
2022/11/17 05:13:50;;;;;;;17.00;9.13;;;;;;;;;;5057929;28;20048;-72
2022/11/17 05:19:01;;;;;;;14.70;9.57;;;;;;;;;;5056873;28;20128;-73
2022/11/17 05:21:28;;;;;;;15.27;9.57;;;;;;;;;;5055011;28;20044;-73
2022/11/17 05:23:54;;;;;;;12.65;9.15;;;;;;;;;;5053334;28;20458;-73
2022/11/17 05:26:21;;;;;;;20.27;10.13;;;;;;;;;;5051131;28;20048;-73
2022/11/17 05:28:48;;;;;;;15.93;9.25;;;;;;;;;;5053084;28;20083;-73
2022/11/17 05:31:14;;;;;;;14.80;9.75;;;;;;;;;;5053631;28;20025;-73
2022/11/17 05:33:40;;;;;;;14.00;10.35;;;;;;;;;;5052960;28;20501;-74
2022/11/17 05:36:06;;;;;;;15.60;9.82;;;;;;;;;;5052341;28;20029;-73
2022/11/17 05:38:32;;;;;;;14.00;9.95;;;;;;;;;;5052783;28;20363;-73
2022/11/17 05:40:58;;;;;;;15.70;10.50;;;;;;;;;;5053752;28;20386;-73
2022/11/17 05:43:24;;;;;;;14.48;10.30;;;;;;;;;;5053205;28;20079;-72
2022/11/17 05:45:50;;;;;;;14.38;9.98;;;;;;;;;;5052075;28;20490;-72
2022/11/17 05:48:16;;;;;;;16.95;11.38;;;;;;;;;;5052138;28;20073;-72
2022/11/17 05:50:42;;;;;;;23.33;10.55;;;;;;;;;;5052334;28;20021;-73
2022/11/17 05:53:08;;;;;;;13.25;9.68;;;;;;;;;;5051864;28;20036;-74
2022/11/17 05:55:34;;;;;;;16.58;10.90;;;;;;;;;;5051771;28;20033;-74
2022/11/17 05:58:03;;;;;;;16.10;10.90;;;;;;;;;;5052359;28;20439;-73
2022/11/17 06:00:30;;;;;;;15.13;10.60;;;;;;;;;;5052078;28;20466;-73
2022/11/17 06:02:58;;;;;;;16.25;11.43;;;;;;;;;;5050618;28;20025;-74
2022/11/17 06:05:24;;;;;;;15.18;11.23;;;;;;;;;;5051719;28;20033;-73
2022/11/17 06:07:51;;;;;;;14.57;10.82;;;;;;;;;;5052239;28;20504;-74
2022/11/17 06:10:17;;;;;;;18.40;11.45;;;;;;;;;;5052337;28;20033;-73
2022/11/17 06:12:43;;;;;;;17.48;11.32;;;;;;;;;;5053047;28;20509;-72
2022/11/17 06:15:09;;;;;;;17.15;12.18;;;;;;;;;;5051964;28;20375;-74
2022/11/17 06:17:37;;;;;;;18.30;11.40;;;;;;;;;;5056026;28;20025;-73
2022/11/17 06:20:14;;;;;;;18.67;11.13;;;;;;;;;;5055178;28;20092;-73
2022/11/17 06:22:40;;;;;;;18.48;12.02;;;;;;;;;;5065075;28;20029;-75
2022/11/17 06:25:07;;;;;;;19.48;12.80;;;;;;;;;;5068559;28;20045;-74
2022/11/17 06:27:35;;;;;;;17.17;12.45;;;;;;;;;;5069384;28;20025;-76
2022/11/17 06:30:02;;;;;;;20.15;12.65;;;;;;;;;;5067155;28;20032;-78
2022/11/17 06:32:28;;;;;;;19.70;12.18;;;;;;;;;;5054428;28;20092;-77
2022/11/17 06:34:54;;;;;;;18.38;11.52;;;;;;;;;;5051899;28;20108;-75
2022/11/17 06:37:20;;;;;;;18.33;11.50;;;;;;;;;;5051654;28;20048;-73
2022/11/17 06:39:46;;;;;;;15.15;11.38;;;;;;;;;;5054684;28;20021;-74
2022/11/17 06:42:12;;;;;;;15.50;11.77;;;;;;;;;;5056322;28;20025;-74
2022/11/17 06:44:38;;;;;;;18.10;12.20;;;;;;;;;;5059741;28;20043;-74
2022/11/17 06:47:04;;;;;;;17.55;11.75;;;;;;;;;;5058534;28;20028;-76
2022/11/17 06:49:30;;;;;;;18.23;12.32;;;;;;;;;;5056369;28;20031;-75
2022/11/17 06:51:56;;;;;;;17.95;12.43;;;;;;;;;;5059829;28;20470;-73
2022/11/17 06:54:21;;;;;;;16.25;11.88;;;;;;;;;;5055404;28;20482;-75
2022/11/17 06:56:50;;;;;;;18.60;12.48;;;;;;;;;;5054545;28;20055;-73
2022/11/17 06:59:16;;;;;;;18.08;11.95;;;;;;;;;;5055431;28;20115;-74
2022/11/17 07:01:42;;;;;;;16.58;12.00;;;;;;;;;;5055446;28;20025;-73
2022/11/17 07:04:08;;;;;;;15.57;10.88;;;;;;;;;;5055487;28;20496;-73
2022/11/17 07:06:37;;;;;;;20.80;11.35;;;;;;;;;;5053585;28;20021;-73
2022/11/17 07:09:03;;;;;;;16.08;11.25;;;;;;;;;;5055049;28;20554;-72
2022/11/17 07:11:29;;;;;;;18.05;11.77;;;;;;;;;;5055548;28;20033;-75
2022/11/17 07:13:57;;;;;;;15.30;10.52;;;;;;;;;;5053666;28;20132;-75
2022/11/17 07:16:23;;;;;;;17.60;11.27;;;;;;;;;;5055223;28;20029;-74
2022/11/17 07:18:49;;;;;;;16.35;11.45;;;;;;;;;;5055996;28;20044;-75
2022/11/17 07:21:15;;;;;;;15.02;11.15;;;;;;;;;;5057170;28;20108;-75
2022/11/17 07:23:43;;;;;;;18.40;10.98;;;;;;;;;;5060929;28;20040;-73
2022/11/17 07:26:09;;;;;;;19.83;11.80;;;;;;;;;;5059927;28;20529;-74
2022/11/17 07:28:35;;;;;;;19.17;11.73;;;;;;;;;;5064380;28;20104;-76
2022/11/17 07:31:02;;;;;;;19.10;11.77;;;;;;;;;;5061831;28;20025;-75
2022/11/17 07:33:28;;;;;;;18.52;11.93;;;;;;;;;;5062366;28;20055;-74
2022/11/17 07:35:54;;;;;;;17.27;11.43;;;;;;;;;;5061766;28;20033;-75
2022/11/17 07:38:21;;;;;;;18.55;11.25;;;;;;;;;;5061638;28;20115;-74
2022/11/17 07:40:46;;;;;;;17.33;11.00;;;;;;;;;;5058904;28;20037;-75
2022/11/17 07:43:12;;;;;;;18.08;10.90;;;;;;;;;;5055758;28;20119;-74
2022/11/17 07:45:38;;;;;;;18.42;11.85;;;;;;;;;;5054478;28;20021;-75
2022/11/17 07:48:05;;;;;;;17.23;11.32;;;;;;;;;;5054813;28;20048;-74
2022/11/17 07:50:31;;;;;;;16.98;10.63;;;;;;;;;;5054328;28;20073;-75
2022/11/17 07:52:58;;;;;;;17.77;11.57;;;;;;;;;;5054006;28;20496;-75
2022/11/17 07:55:25;;;;;;;17.92;10.85;;;;;;;;;;5053990;28;20036;-75
2022/11/17 07:57:57;;;;;;;20.48;11.45;;;;;;;;;;5055041;28;20428;-76
2022/11/17 08:00:23;;;;;;;17.60;10.88;;;;;;;;;;5058823;28;20040;-75
2022/11/17 08:02:49;;;;;;;17.58;10.55;;;;;;;;;;5058021;28;20029;-75
2022/11/17 08:05:18;;;;;;;18.08;11.38;;;;;;;;;;5056707;28;20068;-75
2022/11/17 08:07:45;;;;;;;18.02;12.05;;;;;;;;;;5062241;28;20032;-75
2022/11/17 08:10:11;;;;;;;20.10;11.52;;;;;;;;;;5055535;28;20025;-76
2022/11/17 08:12:37;;;;;;;16.55;10.95;;;;;;;;;;5056458;28;20162;-74
2022/11/17 08:15:03;;;;;;;16.42;11.20;;;;;;;;;;5053803;28;20485;-75
2022/11/17 08:17:30;;;;;;;15.95;10.60;;;;;;;;;;5052274;28;20032;-74
2022/11/17 08:19:56;;;;;;;21.17;11.40;;;;;;;;;;5053857;28;20041;-75
2022/11/17 08:22:23;;;;;;;18.25;11.32;;;;;;;;;;5054436;28;20021;-75
2022/11/17 08:24:48;;;;;;;17.35;11.35;;;;;;;;;;5054204;28;20063;-75
2022/11/17 08:27:15;;;;;;;17.48;11.05;;;;;;;;;;5053816;28;20021;-74
2022/11/17 08:29:41;;;;;;;17.13;10.88;;;;;;;;;;5055443;28;20393;-75
2022/11/17 08:32:07;;;;;;;15.48;10.18;;;;;;;;;;5060372;28;20036;-74
2022/11/17 08:34:33;;;;;;;16.23;11.15;;;;;;;;;;5075787;28;20017;-74
2022/11/17 08:36:59;;;;;;;20.30;11.07;;;;;;;;;;5077325;28;20020;-74
2022/11/17 08:39:25;;;;;;;17.70;12.02;;;;;;;;;;5076446;28;20509;-74
2022/11/17 08:41:51;;;;;;;25.67;14.00;;;;;;;;;;5076838;28;20035;-74
2022/11/17 08:44:17;;;;;;;18.02;11.35;;;;;;;;;;5072256;28;20032;-75
2022/11/17 08:46:43;;;;;;;17.40;11.85;;;;;;;;;;5055742;28;20401;-75
2022/11/17 08:49:09;;;;;;;22.55;11.75;;;;;;;;;;5056961;28;20029;-76
2022/11/17 08:51:35;;;;;;;16.30;11.40;;;;;;;;;;5055164;28;20544;-75
2022/11/17 08:54:01;;;;;;;18.05;11.50;;;;;;;;;;5057569;28;20127;-75
2022/11/17 08:56:27;;;;;;;20.27;11.75;;;;;;;;;;5057021;28;20025;-74
2022/11/17 08:58:53;;;;;;;17.75;11.82;;;;;;;;;;5056710;28;20029;-74
2022/11/17 09:01:19;;;;;;;17.58;10.90;;;;;;;;;;5054020;28;20478;-75
2022/11/17 09:03:46;;;;;;;19.98;12.25;;;;;;;;;;5054394;28;20021;-75
2022/11/17 09:06:13;;;;;;;21.65;12.18;;;;;;;;;;5052975;28;20074;-73
2022/11/17 09:08:39;;;;;;;19.15;11.43;;;;;;;;;;5052140;28;20025;-74
2022/11/17 09:11:06;;;;;;;17.90;11.60;;;;;;;;;;5053497;28;20103;-75
2022/11/17 09:13:32;;;;;;;18.98;12.10;;;;;;;;;;5058960;28;20025;-74
2022/11/17 09:16:06;;;;;;;21.13;12.27;;;;;;;;;;5053445;28;20508;-78
2022/11/17 09:18:32;;;;;;;19.65;12.70;;;;;;;;;;5053746;28;20095;-74
2022/11/17 09:21:02;;;;;;;25.83;12.25;;;;;;;;;;5054010;28;20017;-76
2022/11/17 09:23:28;;;;;;;21.00;13.13;;;;;;;;;;5053732;28;20100;-75
2022/11/17 09:25:55;;;;;;;21.10;12.95;;;;;;;;;;5051681;28;20101;-74
2022/11/17 09:28:23;;;;;;;21.00;12.43;;;;;;;;;;5053714;28;20085;-76
2022/11/17 09:30:49;;;;;;;19.27;12.63;;;;;;;;;;5052927;28;20029;-74
2022/11/17 09:33:15;;;;;;;22.85;14.35;;;;;;;;;;5052869;28;20028;-75
2022/11/17 09:35:41;;;;;;;20.38;13.32;;;;;;;;;;5052581;28;20532;-76
2022/11/17 09:38:06;;;;;;;20.70;13.45;;;;;;;;;;5052787;28;20521;-76
2022/11/17 09:40:33;;;;;;;18.90;13.07;;;;;;;;;;5052534;28;20021;-75
2022/11/17 09:42:59;;;;;;;25.08;13.35;;;;;;;;;;5053887;28;20032;-77
2022/11/17 09:45:31;;;;;;;22.17;13.80;;;;;;;;;;5053128;28;20025;-75
2022/11/17 09:48:00;;;;;;;19.42;13.20;;;;;;;;;;5052760;28;20025;-76
2022/11/17 09:50:28;;;;;;;23.52;13.73;;;;;;;;;;5052642;28;20025;-76
2022/11/17 09:53:06;;;;;;;19.90;13.23;;;;;;;;;;5052502;28;20055;-75
2022/11/17 09:55:37;;;;;;;21.27;13.88;;;;;;;;;;5036146;28;20037;-77
2022/11/17 09:58:21;;;;;;;21.05;13.68;;;;;;;;;;5033130;28;20548;-76
2022/11/17 10:00:50;;;;;;;21.40;13.68;;;;;;;;;;5033166;28;20467;-77
2022/11/17 10:03:28;;;;;;;27.67;13.65;;;;;;;;;;5032434;28;20025;-75
2022/11/17 10:05:54;;;;;;;21.33;13.57;;;;;;;;;;5032200;28;20041;-75
2022/11/17 10:08:32;;;;;;;21.70;13.43;;;;;;;;;;5032950;28;20033;-76
2022/11/17 10:10:58;;;;;;;23.92;13.98;;;;;;;;;;5033065;28;20033;-76
2022/11/17 10:13:26;;;;;;;22.42;13.35;;;;;;;;;;5035078;28;20082;-74
2022/11/17 10:15:57;;;;;;;22.60;14.45;;;;;;;;;;5036197;28;20116;-73
2022/11/17 10:18:23;;;;;;;21.45;14.10;;;;;;;;;;5036591;28;20025;-75
2022/11/17 10:20:49;;;;;;;22.10;13.80;;;;;;;;;;5040961;28;20033;-80
2022/11/17 10:23:17;;;;;;;25.80;14.23;;;;;;;;;;5049862;28;20021;-77
2022/11/17 10:25:44;;;;;;;23.30;14.32;;;;;;;;;;5046885;28;20471;-77
2022/11/17 10:28:24;;;;;;;22.35;14.23;;;;;;;;;;5045869;28;20029;-74
2022/11/17 10:30:59;;;;;;;26.23;14.63;;;;;;;;;;5045060;28;20037;-75
2022/11/17 10:33:54;;;;;;;20.67;14.40;;;;;;;;;;5041606;28;20075;-75
2022/11/17 10:36:22;;;;;;;28.38;15.77;;;;;;;;;;5031241;28;20065;-75
2022/11/17 10:38:49;;;;;;;30.02;15.68;;;;;;;;;;5040653;28;20112;-75
2022/11/17 10:41:17;;;;;;;23.48;14.65;;;;;;;;;;5043304;28;20025;-74
2022/11/17 10:43:53;;;;;;;24.00;14.57;;;;;;;;;;5042381;28;20030;-74
2022/11/17 10:46:19;;;;;;;22.08;14.77;;;;;;;;;;5049408;28;20064;-75
2022/11/17 10:49:05;;;;;;;21.65;14.90;;;;;;;;;;5057198;28;20027;-73
2022/11/17 10:51:33;;;;;;;25.88;17.10;;;;;;;;;;5057005;28;20044;-75
2022/11/17 10:54:05;;;;;;;23.20;15.38;;;;;;;;;;5048927;28;20140;-74
2022/11/17 10:56:32;;;;;;;23.80;16.15;;;;;;;;;;5035878;28;20069;-75
2022/11/17 10:59:07;;;;;;;24.80;15.65;;;;;;;;;;5036417;28;20026;-75
2022/11/17 11:01:35;;;;;;;23.65;15.82;;;;;;;;;;5036216;28;20022;-73
2022/11/17 11:04:02;;;;;;;30.15;17.63;;;;;;;;;;5036009;28;20033;-76
2022/11/17 11:06:29;;;;;;;26.40;16.83;;;;;;;;;;5038240;28;20025;-75
2022/11/17 11:08:58;;;;;;;29.27;17.85;;;;;;;;;;5035142;28;20026;-77
2022/11/17 11:11:30;;;;;;;24.52;16.58;;;;;;;;;;5036022;28;20369;-75
2022/11/17 11:13:57;;;;;;;27.42;17.67;;;;;;;;;;5035780;28;20108;-77
2022/11/17 11:16:25;;;;;;;27.55;17.27;;;;;;;;;;5036624;28;20037;-78
2022/11/17 11:18:52;;;;;;;25.67;16.92;;;;;;;;;;5036076;28;20359;-76
2022/11/17 11:21:24;;;;;;;26.73;17.40;;;;;;;;;;5037901;28;20021;-76
2022/11/17 11:23:56;;;;;;;25.45;17.48;;;;;;;;;;5040819;28;20025;-75
2022/11/17 11:26:34;;;;;;;28.70;18.33;;;;;;;;;;5035749;28;20026;-75
2022/11/17 11:29:06;;;;;;;26.60;18.30;;;;;;;;;;5037149;28;20033;-77
2022/11/17 11:31:32;;;;;;;24.02;16.70;;;;;;;;;;5037861;28;20021;-74
2022/11/17 11:34:16;;;;;;;30.55;18.38;;;;;;;;;;5035503;28;20033;-76
2022/11/17 11:36:44;;;;;;;24.98;17.73;;;;;;;;;;5034334;28;20109;-75
2022/11/17 11:39:13;;;;;;;30.42;19.02;;;;;;;;;;5033537;28;20040;-74
2022/11/17 11:41:42;;;;;;;27.10;17.92;;;;;;;;;;5034889;28;20017;-75
2022/11/17 11:44:27;;;;;;;25.80;17.90;;;;;;;;;;5034883;28;20025;-76
2022/11/17 11:46:52;;;;;;;;;;;;;;;;;;5034185;28;20063;-75
2022/11/17 11:49:27;;;;;;;27.80;17.33;;;;;;;;;;5034686;28;19995;-75
2022/11/17 11:51:53;;;;;;;29.98;17.90;;;;;;;;;;5035477;28;20083;-76
2022/11/17 11:54:39;;;;;;;34.60;17.38;;;;;;;;;;5034412;28;20041;-74
2022/11/17 11:57:05;;;;;;;27.63;18.10;;;;;;;;;;5034018;28;20029;-75
2022/11/17 11:59:52;;;;;;;29.15;18.00;;;;;;;;;;5034319;28;20501;-74
2022/11/17 12:02:21;;;;;;;33.47;18.15;;;;;;;;;;5033989;28;20092;-75
2022/11/17 12:05:26;;;;;;;26.23;17.42;;;;;;;;;;5032918;28;20021;-74
2022/11/17 12:07:56;;;;;;;25.13;16.90;;;;;;;;;;4992643;28;20045;-75
2022/11/17 12:10:28;;;;;;;24.38;16.85;;;;;;;;;;4992639;28;20034;-74
2022/11/17 12:12:54;;;;;;;26.98;16.50;;;;;;;;;;5015158;28;20086;-75
2022/11/17 12:15:20;;;;;;;24.85;15.65;;;;;;;;;;5032566;28;20033;-76
2022/11/17 12:17:56;;;;;;;26.48;16.65;;;;;;;;;;5032767;28;20028;-75
2022/11/17 12:20:40;;;;;;;22.65;15.85;;;;;;;;;;5034057;28;20034;-75
2022/11/17 12:23:26;;;;;;;24.42;15.63;;;;;;;;;;5034113;28;20056;-75
2022/11/17 12:25:54;;;;;;;25.98;15.85;;;;;;;;;;5033735;28;20053;-75
2022/11/17 12:28:36;;;;;;;25.65;15.93;;;;;;;;;;5033635;28;20025;-75
2022/11/17 12:31:06;;;;;;;23.05;15.88;;;;;;;;;;5034054;28;20033;-74
2022/11/17 12:33:51;;;;;;;23.10;16.17;;;;;;;;;;5033504;28;20039;-76
2022/11/17 12:36:33;;;;;;;27.58;17.42;;;;;;;;;;5032364;28;20033;-73
2022/11/17 12:39:00;;;;;;;24.13;16.10;;;;;;;;;;5033833;28;20044;-77
2022/11/17 12:41:44;;;;;;;26.42;17.45;;;;;;;;;;5038533;28;20097;-75
2022/11/17 12:44:29;;;;;;;23.58;15.93;;;;;;;;;;5040019;28;20041;-77
2022/11/17 12:46:58;;;;;;;28.65;17.60;;;;;;;;;;5040451;28;20029;-77
2022/11/17 12:49:31;;;;;;;29.77;17.83;;;;;;;;;;5036360;28;20421;-77
2022/11/17 12:52:01;;;;;;;25.27;17.20;;;;;;;;;;5036962;28;20044;-76
2022/11/17 12:54:34;;;;;;;26.95;18.08;;;;;;;;;;5052556;28;20079;-76
2022/11/17 12:57:16;;;;;;;26.48;18.35;;;;;;;;;;5094043;28;20449;-75
2022/11/17 13:00:01;;;;;;;28.63;18.63;;;;;;;;;;5094183;28;20028;-74
2022/11/17 13:02:29;;;;;;;37.08;19.67;;;;;;;;;;5091320;28;20033;-74
2022/11/17 13:05:08;;;;;;;29.67;19.88;;;;;;;;;;5074806;28;20067;-76
2022/11/17 13:07:37;;;;;;;35.88;19.80;;;;;;;;;;5070680;28;20028;-76
2022/11/17 13:10:03;;;;;;;30.25;19.65;;;;;;;;;;5069995;28;20035;-75
2022/11/17 13:12:30;;;;;;;34.92;19.92;;;;;;;;;;5070395;28;20486;-74
2022/11/17 13:14:56;;;;;;;29.90;18.52;;;;;;;;;;5073670;28;20047;-76
2022/11/17 13:17:30;;;;;;;32.70;19.73;;;;;;;;;;5077608;28;20029;-75
2022/11/17 13:20:04;;;;;;;32.17;20.27;;;;;;;;;;5078242;28;20090;-74
2022/11/17 13:22:32;;;;;;;27.92;19.08;;;;;;;;;;5079320;28;20079;-75
2022/11/17 13:25:11;;;;;;;30.90;19.45;;;;;;;;;;5070957;28;20533;-75
2022/11/17 13:27:43;;;;;;;29.70;19.63;;;;;;;;;;5069374;28;20032;-76
2022/11/17 13:30:15;;;;;;;32.22;20.92;;;;;;;;;;5071142;28;20032;-76
2022/11/17 13:32:41;;;;;;;39.50;20.73;;;;;;;;;;5072671;28;20025;-74
2022/11/17 13:35:22;;;;;;;30.23;19.65;;;;;;;;;;5071350;28;20029;-74
2022/11/17 13:38:06;;;;;;;31.52;19.80;;;;;;;;;;5070216;28;20076;-74
2022/11/17 13:40:34;;;;;;;31.63;19.17;;;;;;;;;;5071672;28;20082;-75
2022/11/17 13:43:01;;;;;;;34.15;20.48;;;;;;;;;;5070355;28;20029;-76
2022/11/17 13:45:27;;;;;;;33.17;19.08;;;;;;;;;;5068656;28;20024;-76
2022/11/17 13:47:57;;;;;;;31.85;20.35;;;;;;;;;;5072067;28;20085;-76
2022/11/17 13:50:23;;;;;;;32.40;19.55;;;;;;;;;;5073896;28;20054;-75
2022/11/17 13:52:53;;;;;;;33.88;19.75;;;;;;;;;;5072945;28;20457;-74
2022/11/17 13:55:20;;;;;;;27.58;19.05;;;;;;;;;;5067977;28;20509;-76
2022/11/17 13:57:56;;;;;;;33.08;20.60;;;;;;;;;;5070375;28;20021;-77
2022/11/17 14:00:23;;;;;;;29.65;18.85;;;;;;;;;;5070705;28;20075;-76
2022/11/17 14:02:53;;;;;;;36.30;20.05;;;;;;;;;;5067903;28;20048;-75
2022/11/17 14:05:21;;;;;;;30.80;19.98;;;;;;;;;;5067779;28;20381;-74
2022/11/17 14:07:48;;;;;;;29.30;19.00;;;;;;;;;;5059163;28;20036;-75
2022/11/17 14:10:20;;;;;;;36.28;20.98;;;;;;;;;;5055282;28;20492;-75
2022/11/17 14:12:53;;;;;;;30.42;19.67;;;;;;;;;;5055199;28;20494;-76
2022/11/17 14:15:24;;;;;;;37.65;22.05;;;;;;;;;;5054765;28;20029;-73
2022/11/17 14:17:50;;;;;;;31.23;20.20;;;;;;;;;;5054848;28;20017;-76
2022/11/17 14:20:36;;;;;;;27.20;18.40;;;;;;;;;;5056021;28;20378;-75
2022/11/17 14:23:02;;;;;;;31.90;19.75;;;;;;;;;;5058304;28;20029;-77
2022/11/17 14:25:29;;;;;;;31.60;19.63;;;;;;;;;;5054133;28;20074;-74
2022/11/17 14:27:55;;;;;;;30.20;19.38;;;;;;;;;;5053254;28;20444;-77
2022/11/17 14:30:21;;;;;;;37.17;19.50;;;;;;;;;;5054201;28;20033;-75
2022/11/17 14:32:47;;;;;;;36.50;21.45;;;;;;;;;;5053683;28;20025;-76
2022/11/17 14:35:14;;;;;;;34.60;19.77;;;;;;;;;;5052973;28;20033;-76
2022/11/17 14:37:40;;;;;;;31.52;18.73;;;;;;;;;;5053608;28;20477;-76
2022/11/17 14:40:11;;;;;;;31.58;19.00;;;;;;;;;;5051702;28;20036;-76
2022/11/17 14:42:40;;;;;;;29.83;18.55;;;;;;;;;;5055360;28;20029;-77
2022/11/17 14:45:06;;;;;;;28.65;19.20;;;;;;;;;;5052897;28;20075;-76
2022/11/17 14:47:32;;;;;;;33.70;19.38;;;;;;;;;;5053605;28;20035;-76
2022/11/17 14:49:58;;;;;;;33.80;20.20;;;;;;;;;;5054742;28;20111;-75
2022/11/17 14:52:24;;;;;;;32.72;18.77;;;;;;;;;;5056048;28;20032;-75
2022/11/17 14:54:50;;;;;;;29.05;17.60;;;;;;;;;;5055044;28;20100;-75
2022/11/17 14:57:16;;;;;;;28.23;18.55;;;;;;;;;;5054662;28;20033;-76
2022/11/17 14:59:42;;;;;;;29.33;18.42;;;;;;;;;;5050294;28;20028;-75
2022/11/17 15:02:09;;;;;;;30.90;18.27;;;;;;;;;;5054323;28;20025;-76
2022/11/17 15:04:35;;;;;;;32.15;19.48;;;;;;;;;;5057538;28;20025;-77